Αρχική σελίδα
METAR-TAF:

METAR-TAF

Αεροδρόμια :

Μόσχα-Σερεμέτιεβο, Ρωσία

γεωγραφικό πλάτος: 55-58N, γεωγραφικό μήκος: 037-25E, υψόμετρο: 190 μ

Παρών καιρός

Η αναφορά έγινε 39 λεπτά πριν, στις 23:30 UTC
Άνεμος 2 kt από Β/BΔ
Θερμοκρασία 12°C
Υγρασία 100%
Πίεση 1022 hPa
Ορατότητα 10 χλμ και άνω
Δεν υπάρχουν νέφη με βάση κάτω από τα 1500 μ. και δεν υπάρχουν νέφη σωρειτομελανίτες.

METAR: UUEE 162330Z 34001MPS CAVOK 12/12 Q1022 R06R/CLRD62 NOSIG

Χρόνος: 03:09 (00:09 UTC)

Πρόγνωση Καιρού

Η αναφορά έγινε 1 ώρα και 12 λεπτά πριν, στις 22:57 UTC
Η πρόγνωση ισχύει από τις 17 στις 00 UTC έως τις 17 στις 24 UTC
Άνεμος 6 kt από Β/BA
Ορατότητα 10 χλμ και άνω
Διάσπαρτα νέφη σε ύψος 3000 πόδια
Προσωρινά
από 17 στις 00 UTC έως τις 17 στις 05 UTC
Ορατότητα: 0500 μ
Λίγα νέφη σε ύψος 500 πόδια
ομίχλη

TAF: UUEE 162257Z 1700/1724 02003MPS 9999 SCT030 TX22/1712Z TN12/1703Z TEMPO 1700/1705 0500 FG FEW005

Μετεωρολογικές αναφορές και προγνώσεις για περισσότερα από 4000 αεροδρόμια (δελτία METAR και TAF).

Οι διαθέσιμοι σταθμοί απεικονίζονται στο χάρτη με κίτρινες και κόκκινες κουκκίδες.

Μετακινήστε το ποντίκι πάνω από τις κουκκίδες για να δείτε το όνομα του σταθμού.

Στη συνέχεια, κάντε κλικ για να δείτε τις μετεωρολογικές αναφορές και τις προγνώσεις καιρού.

Για να αλλάξετε το χάρτη: κάντε κλικ στα πράσινα κουμπιά με τον μαύρο σταυρό για να ζουμάρετε, στο πράσινο κουμπί με την παύλα για να αφαιρέσετε το ζουμ ή στα πράσινα βέλη για να αντιπαραβάλλετε χάρτες.


METAR-TAF: